sensor_id;sensor_type;location;lat;lon;timestamp;P1;durP1;ratioP1;P2;durP2;ratioP2
9722;SDS011;4900;49.306;8.500;2023-04-16T00:02:00;11.63;;;9.67;;
9722;SDS011;4900;49.306;8.500;2023-04-16T00:04:25;13.37;;;10.67;;
9722;SDS011;4900;49.306;8.500;2023-04-16T00:06:51;15.33;;;12.37;;
9722;SDS011;4900;49.306;8.500;2023-04-16T00:09:16;14.20;;;12.70;;
9722;SDS011;4900;49.306;8.500;2023-04-16T00:11:42;13.20;;;11.50;;
9722;SDS011;4900;49.306;8.500;2023-04-16T00:14:07;16.20;;;12.13;;
9722;SDS011;4900;49.306;8.500;2023-04-16T00:16:32;16.73;;;14.17;;
9722;SDS011;4900;49.306;8.500;2023-04-16T00:18:58;16.83;;;12.77;;
9722;SDS011;4900;49.306;8.500;2023-04-16T00:21:23;15.00;;;13.40;;
9722;SDS011;4900;49.306;8.500;2023-04-16T00:23:48;14.97;;;12.50;;
9722;SDS011;4900;49.306;8.500;2023-04-16T00:26:14;16.03;;;13.57;;
9722;SDS011;4900;49.306;8.500;2023-04-16T00:28:40;16.77;;;12.80;;
9722;SDS011;4900;49.306;8.500;2023-04-16T00:31:05;17.47;;;14.27;;
9722;SDS011;4900;49.306;8.500;2023-04-16T00:33:31;16.37;;;13.57;;
9722;SDS011;4900;49.306;8.500;2023-04-16T00:35:56;17.13;;;13.03;;
9722;SDS011;4900;49.306;8.500;2023-04-16T00:38:23;16.03;;;13.20;;
9722;SDS011;4900;49.306;8.500;2023-04-16T00:40:48;16.80;;;13.17;;
9722;SDS011;4900;49.306;8.500;2023-04-16T00:43:26;16.13;;;13.70;;
9722;SDS011;4900;49.306;8.500;2023-04-16T00:45:52;17.97;;;14.43;;
9722;SDS011;4900;49.306;8.500;2023-04-16T00:48:20;17.03;;;13.63;;
9722;SDS011;4900;49.306;8.500;2023-04-16T00:50:45;16.30;;;12.77;;
9722;SDS011;4900;49.306;8.500;2023-04-16T00:53:12;17.97;;;12.83;;
9722;SDS011;4900;49.306;8.500;2023-04-16T00:55:39;18.20;;;14.40;;
9722;SDS011;4900;49.306;8.500;2023-04-16T00:58:05;17.50;;;13.27;;
9722;SDS011;4900;49.306;8.500;2023-04-16T01:00:31;16.90;;;12.70;;
9722;SDS011;4900;49.306;8.500;2023-04-16T01:02:57;16.73;;;13.30;;
9722;SDS011;4900;49.306;8.500;2023-04-16T01:05:24;16.73;;;13.30;;
9722;SDS011;4900;49.306;8.500;2023-04-16T01:07:49;16.70;;;13.43;;
9722;SDS011;4900;49.306;8.500;2023-04-16T01:10:15;16.40;;;13.87;;
9722;SDS011;4900;49.306;8.500;2023-04-16T01:12:40;16.53;;;13.77;;
9722;SDS011;4900;49.306;8.500;2023-04-16T01:15:06;16.17;;;12.23;;
9722;SDS011;4900;49.306;8.500;2023-04-16T01:17:32;18.83;;;13.30;;
9722;SDS011;4900;49.306;8.500;2023-04-16T01:19:58;17.90;;;13.73;;
9722;SDS011;4900;49.306;8.500;2023-04-16T01:22:24;17.00;;;13.73;;
9722;SDS011;4900;49.306;8.500;2023-04-16T01:24:50;18.63;;;14.70;;
9722;SDS011;4900;49.306;8.500;2023-04-16T01:27:15;16.67;;;12.90;;
9722;SDS011;4900;49.306;8.500;2023-04-16T01:29:41;15.87;;;13.60;;
9722;SDS011;4900;49.306;8.500;2023-04-16T01:32:06;17.13;;;13.60;;
9722;SDS011;4900;49.306;8.500;2023-04-16T01:34:32;18.10;;;13.87;;
9722;SDS011;4900;49.306;8.500;2023-04-16T01:36:57;19.00;;;15.77;;
9722;SDS011;4900;49.306;8.500;2023-04-16T01:39:22;19.57;;;13.70;;
9722;SDS011;4900;49.306;8.500;2023-04-16T01:41:48;17.53;;;13.70;;
9722;SDS011;4900;49.306;8.500;2023-04-16T01:44:13;18.27;;;13.33;;
9722;SDS011;4900;49.306;8.500;2023-04-16T01:46:40;17.57;;;12.87;;
9722;SDS011;4900;49.306;8.500;2023-04-16T01:49:05;18.30;;;15.37;;
9722;SDS011;4900;49.306;8.500;2023-04-16T01:51:31;17.77;;;13.83;;
9722;SDS011;4900;49.306;8.500;2023-04-16T01:53:57;17.90;;;14.00;;
9722;SDS011;4900;49.306;8.500;2023-04-16T01:56:23;19.43;;;14.47;;
9722;SDS011;4900;49.306;8.500;2023-04-16T01:58:48;18.70;;;14.43;;
9722;SDS011;4900;49.306;8.500;2023-04-16T02:01:14;18.20;;;15.00;;
9722;SDS011;4900;49.306;8.500;2023-04-16T02:03:40;19.27;;;14.30;;
9722;SDS011;4900;49.306;8.500;2023-04-16T02:06:06;18.87;;;13.57;;
9722;SDS011;4900;49.306;8.500;2023-04-16T02:08:31;19.43;;;15.13;;
9722;SDS011;4900;49.306;8.500;2023-04-16T02:10:57;17.93;;;14.07;;
9722;SDS011;4900;49.306;8.500;2023-04-16T02:13:25;16.57;;;12.17;;
9722;SDS011;4900;49.306;8.500;2023-04-16T02:15:50;17.77;;;14.10;;
9722;SDS011;4900;49.306;8.500;2023-04-16T02:18:16;18.73;;;13.90;;
9722;SDS011;4900;49.306;8.500;2023-04-16T02:20:42;18.80;;;14.37;;
9722;SDS011;4900;49.306;8.500;2023-04-16T02:23:09;17.97;;;12.33;;
9722;SDS011;4900;49.306;8.500;2023-04-16T02:25:42;15.47;;;11.53;;
9722;SDS011;4900;49.306;8.500;2023-04-16T02:28:09;16.33;;;12.57;;
9722;SDS011;4900;49.306;8.500;2023-04-16T02:30:36;18.70;;;13.40;;
9722;SDS011;4900;49.306;8.500;2023-04-16T02:33:03;18.70;;;14.80;;
9722;SDS011;4900;49.306;8.500;2023-04-16T02:35:30;16.10;;;13.03;;
9722;SDS011;4900;49.306;8.500;2023-04-16T02:37:57;17.47;;;12.90;;
9722;SDS011;4900;49.306;8.500;2023-04-16T02:40:22;16.87;;;13.37;;
9722;SDS011;4900;49.306;8.500;2023-04-16T02:42:48;16.30;;;12.30;;
9722;SDS011;4900;49.306;8.500;2023-04-16T02:45:13;18.00;;;13.47;;
9722;SDS011;4900;49.306;8.500;2023-04-16T02:47:40;18.23;;;14.17;;
9722;SDS011;4900;49.306;8.500;2023-04-16T02:50:06;17.03;;;13.63;;
9722;SDS011;4900;49.306;8.500;2023-04-16T02:52:32;17.37;;;13.53;;
9722;SDS011;4900;49.306;8.500;2023-04-16T02:54:57;19.47;;;13.63;;
9722;SDS011;4900;49.306;8.500;2023-04-16T02:57:23;17.53;;;13.93;;
9722;SDS011;4900;49.306;8.500;2023-04-16T02:59:49;18.07;;;14.80;;
9722;SDS011;4900;49.306;8.500;2023-04-16T03:02:14;18.20;;;14.57;;
9722;SDS011;4900;49.306;8.500;2023-04-16T03:04:40;19.97;;;14.57;;
9722;SDS011;4900;49.306;8.500;2023-04-16T03:07:06;17.03;;;13.13;;
9722;SDS011;4900;49.306;8.500;2023-04-16T03:09:33;19.23;;;14.77;;
9722;SDS011;4900;49.306;8.500;2023-04-16T03:11:59;18.33;;;14.70;;
9722;SDS011;4900;49.306;8.500;2023-04-16T03:14:26;18.53;;;14.67;;
9722;SDS011;4900;49.306;8.500;2023-04-16T03:16:51;18.40;;;13.97;;
9722;SDS011;4900;49.306;8.500;2023-04-16T03:19:17;20.47;;;15.90;;
9722;SDS011;4900;49.306;8.500;2023-04-16T03:21:43;18.03;;;14.87;;
9722;SDS011;4900;49.306;8.500;2023-04-16T03:24:09;19.57;;;14.70;;
9722;SDS011;4900;49.306;8.500;2023-04-16T03:26:34;20.87;;;14.30;;
9722;SDS011;4900;49.306;8.500;2023-04-16T03:29:00;20.43;;;15.20;;
9722;SDS011;4900;49.306;8.500;2023-04-16T03:31:26;21.40;;;15.20;;
9722;SDS011;4900;49.306;8.500;2023-04-16T03:33:52;20.50;;;15.33;;
9722;SDS011;4900;49.306;8.500;2023-04-16T03:36:17;20.13;;;15.13;;
9722;SDS011;4900;49.306;8.500;2023-04-16T03:38:43;20.47;;;14.70;;
9722;SDS011;4900;49.306;8.500;2023-04-16T03:41:09;19.30;;;16.17;;
9722;SDS011;4900;49.306;8.500;2023-04-16T03:43:34;20.37;;;15.13;;
9722;SDS011;4900;49.306;8.500;2023-04-16T03:46:00;21.33;;;15.67;;
9722;SDS011;4900;49.306;8.500;2023-04-16T03:48:25;21.60;;;16.40;;
9722;SDS011;4900;49.306;8.500;2023-04-16T03:50:51;21.13;;;14.93;;
9722;SDS011;4900;49.306;8.500;2023-04-16T03:53:17;17.87;;;13.43;;
9722;SDS011;4900;49.306;8.500;2023-04-16T03:55:42;19.27;;;14.47;;
9722;SDS011;4900;49.306;8.500;2023-04-16T03:58:08;20.03;;;15.47;;
9722;SDS011;4900;49.306;8.500;2023-04-16T04:00:33;20.13;;;14.10;;
9722;SDS011;4900;49.306;8.500;2023-04-16T04:02:59;19.73;;;14.97;;
9722;SDS011;4900;49.306;8.500;2023-04-16T04:05:25;21.83;;;17.43;;
9722;SDS011;4900;49.306;8.500;2023-04-16T04:07:50;19.20;;;13.43;;
9722;SDS011;4900;49.306;8.500;2023-04-16T04:10:15;19.80;;;14.30;;
9722;SDS011;4900;49.306;8.500;2023-04-16T04:12:41;21.47;;;16.20;;
9722;SDS011;4900;49.306;8.500;2023-04-16T04:15:07;19.83;;;14.70;;
9722;SDS011;4900;49.306;8.500;2023-04-16T04:17:33;20.73;;;15.00;;
9722;SDS011;4900;49.306;8.500;2023-04-16T04:19:58;19.97;;;14.40;;
9722;SDS011;4900;49.306;8.500;2023-04-16T04:22:24;21.23;;;15.63;;
9722;SDS011;4900;49.306;8.500;2023-04-16T04:24:49;20.20;;;13.57;;
9722;SDS011;4900;49.306;8.500;2023-04-16T04:27:15;23.40;;;18.50;;
9722;SDS011;4900;49.306;8.500;2023-04-16T04:29:43;20.80;;;16.17;;
9722;SDS011;4900;49.306;8.500;2023-04-16T04:32:09;22.10;;;14.97;;
9722;SDS011;4900;49.306;8.500;2023-04-16T04:34:34;22.53;;;17.53;;
9722;SDS011;4900;49.306;8.500;2023-04-16T04:37:00;21.07;;;14.60;;
9722;SDS011;4900;49.306;8.500;2023-04-16T04:39:25;21.33;;;16.33;;
9722;SDS011;4900;49.306;8.500;2023-04-16T04:41:51;20.53;;;14.53;;
9722;SDS011;4900;49.306;8.500;2023-04-16T04:44:16;20.43;;;14.30;;
9722;SDS011;4900;49.306;8.500;2023-04-16T04:46:42;20.27;;;13.97;;
9722;SDS011;4900;49.306;8.500;2023-04-16T04:49:07;19.40;;;14.77;;
9722;SDS011;4900;49.306;8.500;2023-04-16T04:51:32;19.57;;;13.60;;
9722;SDS011;4900;49.306;8.500;2023-04-16T04:53:58;19.97;;;14.03;;
9722;SDS011;4900;49.306;8.500;2023-04-16T04:56:23;18.60;;;13.13;;
9722;SDS011;4900;49.306;8.500;2023-04-16T04:58:49;17.93;;;13.37;;
9722;SDS011;4900;49.306;8.500;2023-04-16T05:01:15;18.20;;;12.53;;
9722;SDS011;4900;49.306;8.500;2023-04-16T05:03:40;17.63;;;12.87;;
9722;SDS011;4900;49.306;8.500;2023-04-16T05:06:06;19.17;;;13.17;;
9722;SDS011;4900;49.306;8.500;2023-04-16T05:08:31;16.83;;;12.27;;
9722;SDS011;4900;49.306;8.500;2023-04-16T05:10:57;17.43;;;13.07;;
9722;SDS011;4900;49.306;8.500;2023-04-16T05:13:22;15.10;;;11.37;;
9722;SDS011;4900;49.306;8.500;2023-04-16T05:15:48;17.27;;;12.27;;
9722;SDS011;4900;49.306;8.500;2023-04-16T05:18:13;15.60;;;11.47;;
9722;SDS011;4900;49.306;8.500;2023-04-16T05:20:39;14.33;;;10.93;;
9722;SDS011;4900;49.306;8.500;2023-04-16T05:23:04;16.70;;;12.17;;
9722;SDS011;4900;49.306;8.500;2023-04-16T05:25:30;14.80;;;10.67;;
9722;SDS011;4900;49.306;8.500;2023-04-16T05:27:55;14.80;;;11.00;;
9722;SDS011;4900;49.306;8.500;2023-04-16T05:30:21;14.43;;;11.30;;
9722;SDS011;4900;49.306;8.500;2023-04-16T05:32:46;15.73;;;11.30;;
9722;SDS011;4900;49.306;8.500;2023-04-16T05:35:11;14.57;;;10.60;;
9722;SDS011;4900;49.306;8.500;2023-04-16T05:37:37;14.57;;;10.80;;
9722;SDS011;4900;49.306;8.500;2023-04-16T05:40:02;16.40;;;11.00;;
9722;SDS011;4900;49.306;8.500;2023-04-16T05:42:28;14.70;;;10.13;;
9722;SDS011;4900;49.306;8.500;2023-04-16T05:44:53;13.80;;;10.07;;
9722;SDS011;4900;49.306;8.500;2023-04-16T05:47:19;12.97;;;9.33;;
9722;SDS011;4900;49.306;8.500;2023-04-16T05:49:45;13.07;;;9.70;;
9722;SDS011;4900;49.306;8.500;2023-04-16T05:52:11;13.63;;;10.17;;
9722;SDS011;4900;49.306;8.500;2023-04-16T05:54:36;13.27;;;9.57;;
9722;SDS011;4900;49.306;8.500;2023-04-16T05:57:02;12.30;;;10.20;;
9722;SDS011;4900;49.306;8.500;2023-04-16T05:59:27;13.60;;;10.03;;
9722;SDS011;4900;49.306;8.500;2023-04-16T06:01:54;12.00;;;9.60;;
9722;SDS011;4900;49.306;8.500;2023-04-16T06:04:20;13.53;;;9.60;;
9722;SDS011;4900;49.306;8.500;2023-04-16T06:06:46;13.17;;;10.13;;
9722;SDS011;4900;49.306;8.500;2023-04-16T06:09:11;13.07;;;9.87;;
9722;SDS011;4900;49.306;8.500;2023-04-16T06:11:37;11.80;;;9.10;;
9722;SDS011;4900;49.306;8.500;2023-04-16T06:14:02;13.70;;;11.00;;
9722;SDS011;4900;49.306;8.500;2023-04-16T06:16:28;12.17;;;8.73;;
9722;SDS011;4900;49.306;8.500;2023-04-16T06:18:53;12.50;;;9.90;;
9722;SDS011;4900;49.306;8.500;2023-04-16T06:21:18;12.60;;;9.13;;
9722;SDS011;4900;49.306;8.500;2023-04-16T06:23:44;13.67;;;9.50;;
9722;SDS011;4900;49.306;8.500;2023-04-16T06:26:10;11.97;;;9.20;;
9722;SDS011;4900;49.306;8.500;2023-04-16T06:28:35;13.23;;;9.27;;
9722;SDS011;4900;49.306;8.500;2023-04-16T06:31:01;14.73;;;10.13;;
9722;SDS011;4900;49.306;8.500;2023-04-16T06:33:26;13.60;;;9.27;;
9722;SDS011;4900;49.306;8.500;2023-04-16T06:35:52;13.03;;;9.17;;
9722;SDS011;4900;49.306;8.500;2023-04-16T06:38:17;12.73;;;8.97;;
9722;SDS011;4900;49.306;8.500;2023-04-16T06:40:43;12.07;;;8.97;;
9722;SDS011;4900;49.306;8.500;2023-04-16T06:43:08;13.70;;;10.57;;
9722;SDS011;4900;49.306;8.500;2023-04-16T06:45:34;13.20;;;10.00;;
9722;SDS011;4900;49.306;8.500;2023-04-16T06:47:59;12.60;;;9.53;;
9722;SDS011;4900;49.306;8.500;2023-04-16T06:50:25;14.13;;;10.03;;
9722;SDS011;4900;49.306;8.500;2023-04-16T06:52:53;14.07;;;10.03;;
9722;SDS011;4900;49.306;8.500;2023-04-16T06:55:19;13.00;;;10.30;;
9722;SDS011;4900;49.306;8.500;2023-04-16T06:57:44;12.93;;;9.80;;
9722;SDS011;4900;49.306;8.500;2023-04-16T07:00:10;14.97;;;10.83;;
9722;SDS011;4900;49.306;8.500;2023-04-16T07:02:36;13.97;;;10.77;;
9722;SDS011;4900;49.306;8.500;2023-04-16T07:05:01;14.10;;;10.47;;
9722;SDS011;4900;49.306;8.500;2023-04-16T07:07:27;13.50;;;9.47;;
9722;SDS011;4900;49.306;8.500;2023-04-16T07:09:52;14.50;;;10.67;;
9722;SDS011;4900;49.306;8.500;2023-04-16T07:12:18;14.03;;;10.83;;
9722;SDS011;4900;49.306;8.500;2023-04-16T07:14:45;14.60;;;11.00;;
9722;SDS011;4900;49.306;8.500;2023-04-16T07:17:10;12.97;;;9.07;;
9722;SDS011;4900;49.306;8.500;2023-04-16T07:19:36;13.83;;;10.73;;
9722;SDS011;4900;49.306;8.500;2023-04-16T07:22:01;13.03;;;10.30;;
9722;SDS011;4900;49.306;8.500;2023-04-16T07:24:27;13.17;;;9.23;;
9722;SDS011;4900;49.306;8.500;2023-04-16T07:26:53;14.10;;;10.50;;
9722;SDS011;4900;49.306;8.500;2023-04-16T07:29:18;14.23;;;10.23;;
9722;SDS011;4900;49.306;8.500;2023-04-16T07:31:43;13.13;;;9.93;;
9722;SDS011;4900;49.306;8.500;2023-04-16T07:34:09;14.63;;;10.47;;
9722;SDS011;4900;49.306;8.500;2023-04-16T07:36:35;13.73;;;9.73;;
9722;SDS011;4900;49.306;8.500;2023-04-16T07:39:00;14.80;;;11.33;;
9722;SDS011;4900;49.306;8.500;2023-04-16T07:41:26;14.97;;;11.30;;
9722;SDS011;4900;49.306;8.500;2023-04-16T07:43:54;13.77;;;10.83;;
9722;SDS011;4900;49.306;8.500;2023-04-16T07:46:20;15.53;;;11.40;;
9722;SDS011;4900;49.306;8.500;2023-04-16T07:48:46;16.67;;;10.77;;
9722;SDS011;4900;49.306;8.500;2023-04-16T07:51:11;14.67;;;11.17;;
9722;SDS011;4900;49.306;8.500;2023-04-16T07:53:37;13.43;;;9.87;;
9722;SDS011;4900;49.306;8.500;2023-04-16T07:56:02;14.80;;;10.53;;
9722;SDS011;4900;49.306;8.500;2023-04-16T07:58:28;15.00;;;10.87;;
9722;SDS011;4900;49.306;8.500;2023-04-16T08:00:53;15.40;;;10.33;;
9722;SDS011;4900;49.306;8.500;2023-04-16T08:03:19;16.33;;;10.90;;
9722;SDS011;4900;49.306;8.500;2023-04-16T08:05:45;13.93;;;10.20;;
9722;SDS011;4900;49.306;8.500;2023-04-16T08:08:10;13.73;;;10.50;;
9722;SDS011;4900;49.306;8.500;2023-04-16T08:10:35;13.93;;;10.37;;
9722;SDS011;4900;49.306;8.500;2023-04-16T08:13:01;16.67;;;11.00;;
9722;SDS011;4900;49.306;8.500;2023-04-16T08:15:26;15.20;;;11.07;;
9722;SDS011;4900;49.306;8.500;2023-04-16T08:17:52;15.53;;;11.23;;
9722;SDS011;4900;49.306;8.500;2023-04-16T08:20:17;13.93;;;10.07;;
9722;SDS011;4900;49.306;8.500;2023-04-16T08:22:43;14.93;;;10.05;;
9722;SDS011;4900;49.306;8.500;2023-04-16T08:25:10;13.67;;;10.60;;
9722;SDS011;4900;49.306;8.500;2023-04-16T08:27:36;13.60;;;9.43;;
9722;SDS011;4900;49.306;8.500;2023-04-16T08:30:01;14.63;;;11.10;;
9722;SDS011;4900;49.306;8.500;2023-04-16T08:32:27;14.07;;;9.82;;
9722;SDS011;4900;49.306;8.500;2023-04-16T08:34:52;13.27;;;10.67;;
9722;SDS011;4900;49.306;8.500;2023-04-16T08:37:18;13.93;;;9.97;;
9722;SDS011;4900;49.306;8.500;2023-04-16T08:39:43;12.68;;;10.25;;
9722;SDS011;4900;49.306;8.500;2023-04-16T08:42:12;11.63;;;8.43;;
9722;SDS011;4900;49.306;8.500;2023-04-16T08:44:47;12.88;;;10.20;;
9722;SDS011;4900;49.306;8.500;2023-04-16T08:47:14;14.82;;;10.20;;
9722;SDS011;4900;49.306;8.500;2023-04-16T08:49:43;13.73;;;10.27;;
9722;SDS011;4900;49.306;8.500;2023-04-16T08:52:17;13.88;;;10.27;;
9722;SDS011;4900;49.306;8.500;2023-04-16T08:54:51;13.85;;;10.00;;
9722;SDS011;4900;49.306;8.500;2023-04-16T08:57:26;14.75;;;10.60;;
9722;SDS011;4900;49.306;8.500;2023-04-16T08:59:56;14.25;;;9.73;;
9722;SDS011;4900;49.306;8.500;2023-04-16T09:02:22;12.80;;;9.48;;
9722;SDS011;4900;49.306;8.500;2023-04-16T09:04:50;12.15;;;9.48;;
9722;SDS011;4900;49.306;8.500;2023-04-16T09:07:17;11.50;;;9.18;;
9722;SDS011;4900;49.306;8.500;2023-04-16T09:09:44;11.70;;;8.95;;
9722;SDS011;4900;49.306;8.500;2023-04-16T09:12:12;11.45;;;8.85;;
9722;SDS011;4900;49.306;8.500;2023-04-16T09:14:38;11.63;;;8.80;;
9722;SDS011;4900;49.306;8.500;2023-04-16T09:17:05;11.60;;;8.93;;
9722;SDS011;4900;49.306;8.500;2023-04-16T09:19:31;11.10;;;8.48;;
9722;SDS011;4900;49.306;8.500;2023-04-16T09:21:56;10.90;;;8.43;;
9722;SDS011;4900;49.306;8.500;2023-04-16T09:24:22;11.83;;;8.60;;
9722;SDS011;4900;49.306;8.500;2023-04-16T09:26:49;11.10;;;8.50;;
9722;SDS011;4900;49.306;8.500;2023-04-16T09:29:38;11.27;;;8.57;;
9722;SDS011;4900;49.306;8.500;2023-04-16T09:32:04;9.73;;;7.97;;
9722;SDS011;4900;49.306;8.500;2023-04-16T09:34:31;11.23;;;7.43;;
9722;SDS011;4900;49.306;8.500;2023-04-16T09:37:31;11.23;;;9.07;;
9722;SDS011;4900;49.306;8.500;2023-04-16T09:39:54;13.40;;;9.13;;
9722;SDS011;4900;49.306;8.500;2023-04-16T09:42:31;11.60;;;8.60;;
9722;SDS011;4900;49.306;8.500;2023-04-16T09:44:58;11.27;;;8.20;;
9722;SDS011;4900;49.306;8.500;2023-04-16T09:47:43;12.40;;;9.13;;
9722;SDS011;4900;49.306;8.500;2023-04-16T09:50:13;12.00;;;8.80;;
9722;SDS011;4900;49.306;8.500;2023-04-16T09:52:41;13.77;;;9.53;;
9722;SDS011;4900;49.306;8.500;2023-04-16T09:55:08;13.10;;;9.30;;
9722;SDS011;4900;49.306;8.500;2023-04-16T09:57:35;12.27;;;9.90;;
9722;SDS011;4900;49.306;8.500;2023-04-16T10:00:06;14.53;;;10.27;;
9722;SDS011;4900;49.306;8.500;2023-04-16T10:02:33;14.37;;;10.30;;
9722;SDS011;4900;49.306;8.500;2023-04-16T10:05:03;14.87;;;10.73;;
9722;SDS011;4900;49.306;8.500;2023-04-16T10:07:30;13.50;;;10.13;;
9722;SDS011;4900;49.306;8.500;2023-04-16T10:09:58;14.87;;;10.57;;
9722;SDS011;4900;49.306;8.500;2023-04-16T10:12:23;15.37;;;11.27;;
9722;SDS011;4900;49.306;8.500;2023-04-16T10:14:49;14.47;;;10.40;;
9722;SDS011;4900;49.306;8.500;2023-04-16T10:17:15;14.37;;;10.70;;
9722;SDS011;4900;49.306;8.500;2023-04-16T10:19:41;14.00;;;10.60;;
9722;SDS011;4900;49.306;8.500;2023-04-16T10:22:07;14.20;;;10.90;;
9722;SDS011;4900;49.306;8.500;2023-04-16T10:24:33;13.50;;;10.33;;
9722;SDS011;4900;49.306;8.500;2023-04-16T10:26:59;15.13;;;11.57;;
9722;SDS011;4900;49.306;8.500;2023-04-16T10:29:25;15.17;;;10.77;;
9722;SDS011;4900;49.306;8.500;2023-04-16T10:31:53;14.57;;;11.23;;
9722;SDS011;4900;49.306;8.500;2023-04-16T10:34:19;13.37;;;10.50;;
9722;SDS011;4900;49.306;8.500;2023-04-16T10:36:49;14.33;;;10.50;;
9722;SDS011;4900;49.306;8.500;2023-04-16T10:39:23;15.87;;;10.83;;
9722;SDS011;4900;49.306;8.500;2023-04-16T10:42:05;13.95;;;10.43;;
9722;SDS011;4900;49.306;8.500;2023-04-16T10:44:35;14.20;;;10.33;;
9722;SDS011;4900;49.306;8.500;2023-04-16T10:47:00;14.20;;;10.83;;
9722;SDS011;4900;49.306;8.500;2023-04-16T10:49:26;15.37;;;10.93;;
9722;SDS011;4900;49.306;8.500;2023-04-16T10:51:52;13.87;;;10.87;;
9722;SDS011;4900;49.306;8.500;2023-04-16T10:54:26;15.23;;;10.90;;
9722;SDS011;4900;49.306;8.500;2023-04-16T10:57:02;15.40;;;11.93;;
9722;SDS011;4900;49.306;8.500;2023-04-16T10:59:29;13.00;;;10.20;;
9722;SDS011;4900;49.306;8.500;2023-04-16T11:01:57;14.33;;;10.67;;
9722;SDS011;4900;49.306;8.500;2023-04-16T11:15:10;13.77;;;10.00;;
9722;SDS011;4900;49.306;8.500;2023-04-16T11:17:38;13.33;;;10.10;;
9722;SDS011;4900;49.306;8.500;2023-04-16T11:20:05;14.47;;;10.67;;
9722;SDS011;4900;49.306;8.500;2023-04-16T11:22:33;14.53;;;10.30;;
9722;SDS011;4900;49.306;8.500;2023-04-16T11:25:00;14.40;;;10.37;;
9722;SDS011;4900;49.306;8.500;2023-04-16T11:27:28;13.37;;;10.87;;
9722;SDS011;4900;49.306;8.500;2023-04-16T11:29:58;13.83;;;10.53;;
9722;SDS011;4900;49.306;8.500;2023-04-16T11:32:31;14.00;;;10.97;;
9722;SDS011;4900;49.306;8.500;2023-04-16T11:34:58;14.13;;;10.47;;
9722;SDS011;4900;49.306;8.500;2023-04-16T11:37:33;13.60;;;10.13;;
9722;SDS011;4900;49.306;8.500;2023-04-16T11:40:02;12.97;;;10.43;;
9722;SDS011;4900;49.306;8.500;2023-04-16T11:42:35;14.50;;;10.83;;
9722;SDS011;4900;49.306;8.500;2023-04-16T11:45:01;13.30;;;9.93;;
9722;SDS011;4900;49.306;8.500;2023-04-16T11:47:28;15.27;;;10.50;;
9722;SDS011;4900;49.306;8.500;2023-04-16T11:49:55;16.73;;;12.17;;
9722;SDS011;4900;49.306;8.500;2023-04-16T11:52:28;15.47;;;12.23;;
9722;SDS011;4900;49.306;8.500;2023-04-16T11:54:55;17.97;;;11.87;;
9722;SDS011;4900;49.306;8.500;2023-04-16T11:57:25;16.30;;;11.20;;
9722;SDS011;4900;49.306;8.500;2023-04-16T11:59:52;15.57;;;12.57;;
9722;SDS011;4900;49.306;8.500;2023-04-16T12:02:37;17.17;;;11.73;;
9722;SDS011;4900;49.306;8.500;2023-04-16T12:05:04;17.90;;;13.13;;
9722;SDS011;4900;49.306;8.500;2023-04-16T12:07:42;17.27;;;12.57;;
9722;SDS011;4900;49.306;8.500;2023-04-16T12:10:10;16.40;;;12.13;;
9722;SDS011;4900;49.306;8.500;2023-04-16T12:12:35;16.40;;;12.45;;
9722;SDS011;4900;49.306;8.500;2023-04-16T12:15:01;18.60;;;13.77;;
9722;SDS011;4900;49.306;8.500;2023-04-16T12:17:28;18.93;;;12.20;;
9722;SDS011;4900;49.306;8.500;2023-04-16T12:20:01;17.63;;;12.83;;
9722;SDS011;4900;49.306;8.500;2023-04-16T12:22:32;19.30;;;13.38;;
9722;SDS011;4900;49.306;8.500;2023-04-16T12:25:02;18.83;;;13.80;;
9722;SDS011;4900;49.306;8.500;2023-04-16T12:27:50;19.35;;;13.98;;
9722;SDS011;4900;49.306;8.500;2023-04-16T12:30:20;19.80;;;14.37;;
9722;SDS011;4900;49.306;8.500;2023-04-16T12:32:48;17.83;;;13.30;;
9722;SDS011;4900;49.306;8.500;2023-04-16T12:35:28;19.95;;;13.80;;
9722;SDS011;4900;49.306;8.500;2023-04-16T12:37:55;19.43;;;13.13;;
9722;SDS011;4900;49.306;8.500;2023-04-16T12:40:20;18.40;;;14.53;;
9722;SDS011;4900;49.306;8.500;2023-04-16T12:42:46;20.05;;;13.65;;
9722;SDS011;4900;49.306;8.500;2023-04-16T12:45:11;17.63;;;13.40;;
9722;SDS011;4900;49.306;8.500;2023-04-16T12:47:37;19.33;;;13.77;;
9722;SDS011;4900;49.306;8.500;2023-04-16T12:50:02;20.30;;;13.67;;
9722;SDS011;4900;49.306;8.500;2023-04-16T12:52:28;18.97;;;13.30;;
9722;SDS011;4900;49.306;8.500;2023-04-16T12:54:53;19.00;;;13.67;;
9722;SDS011;4900;49.306;8.500;2023-04-16T12:57:19;20.27;;;13.87;;
9722;SDS011;4900;49.306;8.500;2023-04-16T12:59:45;20.80;;;13.70;;
9722;SDS011;4900;49.306;8.500;2023-04-16T13:02:11;18.17;;;14.17;;
9722;SDS011;4900;49.306;8.500;2023-04-16T13:04:36;18.77;;;14.17;;
9722;SDS011;4900;49.306;8.500;2023-04-16T13:07:02;19.20;;;13.10;;
9722;SDS011;4900;49.306;8.500;2023-04-16T13:09:27;21.60;;;14.60;;
9722;SDS011;4900;49.306;8.500;2023-04-16T13:11:53;19.60;;;14.43;;
9722;SDS011;4900;49.306;8.500;2023-04-16T13:14:19;20.33;;;14.23;;
9722;SDS011;4900;49.306;8.500;2023-04-16T13:16:45;21.30;;;14.35;;
9722;SDS011;4900;49.306;8.500;2023-04-16T13:19:10;17.20;;;13.87;;
9722;SDS011;4900;49.306;8.500;2023-04-16T13:21:36;21.83;;;14.63;;
9722;SDS011;4900;49.306;8.500;2023-04-16T13:24:01;18.47;;;12.77;;
9722;SDS011;4900;49.306;8.500;2023-04-16T13:26:27;20.40;;;14.77;;
9722;SDS011;4900;49.306;8.500;2023-04-16T13:28:52;21.57;;;14.93;;
9722;SDS011;4900;49.306;8.500;2023-04-16T13:31:18;21.23;;;14.60;;
9722;SDS011;4900;49.306;8.500;2023-04-16T13:33:46;22.43;;;14.80;;
9722;SDS011;4900;49.306;8.500;2023-04-16T13:36:11;20.73;;;14.95;;
9722;SDS011;4900;49.306;8.500;2023-04-16T13:38:37;19.43;;;14.07;;
9722;SDS011;4900;49.306;8.500;2023-04-16T13:41:03;18.95;;;13.95;;
9722;SDS011;4900;49.306;8.500;2023-04-16T13:43:30;19.73;;;14.98;;
9722;SDS011;4900;49.306;8.500;2023-04-16T13:45:56;20.67;;;15.50;;
9722;SDS011;4900;49.306;8.500;2023-04-16T13:48:21;20.33;;;15.90;;
9722;SDS011;4900;49.306;8.500;2023-04-16T13:50:47;22.77;;;15.55;;
9722;SDS011;4900;49.306;8.500;2023-04-16T13:53:12;21.52;;;15.32;;
9722;SDS011;4900;49.306;8.500;2023-04-16T13:55:38;21.20;;;16.07;;
9722;SDS011;4900;49.306;8.500;2023-04-16T13:58:03;22.93;;;16.73;;
9722;SDS011;4900;49.306;8.500;2023-04-16T14:00:31;24.60;;;16.30;;
9722;SDS011;4900;49.306;8.500;2023-04-16T14:02:56;23.00;;;17.03;;
9722;SDS011;4900;49.306;8.500;2023-04-16T14:05:22;22.13;;;16.40;;
9722;SDS011;4900;49.306;8.500;2023-04-16T14:07:47;23.27;;;15.87;;
9722;SDS011;4900;49.306;8.500;2023-04-16T14:10:13;20.17;;;14.70;;
9722;SDS011;4900;49.306;8.500;2023-04-16T14:12:38;22.13;;;16.47;;
9722;SDS011;4900;49.306;8.500;2023-04-16T14:15:04;23.87;;;17.07;;
9722;SDS011;4900;49.306;8.500;2023-04-16T14:17:30;23.20;;;17.73;;
9722;SDS011;4900;49.306;8.500;2023-04-16T14:19:56;24.00;;;16.57;;
9722;SDS011;4900;49.306;8.500;2023-04-16T14:22:22;25.03;;;17.47;;
9722;SDS011;4900;49.306;8.500;2023-04-16T14:24:47;21.33;;;16.23;;
9722;SDS011;4900;49.306;8.500;2023-04-16T14:27:13;24.87;;;17.30;;
9722;SDS011;4900;49.306;8.500;2023-04-16T14:29:38;23.53;;;17.20;;
9722;SDS011;4900;49.306;8.500;2023-04-16T14:32:05;21.97;;;16.73;;
9722;SDS011;4900;49.306;8.500;2023-04-16T14:34:31;23.27;;;17.13;;
9722;SDS011;4900;49.306;8.500;2023-04-16T14:36:56;23.77;;;17.00;;
9722;SDS011;4900;49.306;8.500;2023-04-16T14:39:22;24.53;;;18.00;;
9722;SDS011;4900;49.306;8.500;2023-04-16T14:41:48;24.30;;;17.70;;
9722;SDS011;4900;49.306;8.500;2023-04-16T14:44:13;25.93;;;17.77;;
9722;SDS011;4900;49.306;8.500;2023-04-16T14:46:39;25.20;;;17.90;;
9722;SDS011;4900;49.306;8.500;2023-04-16T14:49:05;24.60;;;17.53;;
9722;SDS011;4900;49.306;8.500;2023-04-16T14:51:31;26.50;;;18.47;;
9722;SDS011;4900;49.306;8.500;2023-04-16T14:53:58;27.30;;;18.87;;
9722;SDS011;4900;49.306;8.500;2023-04-16T14:56:24;26.77;;;18.60;;
9722;SDS011;4900;49.306;8.500;2023-04-16T14:58:50;26.23;;;19.67;;